Time;durP1;ratioP1;P1;durP2;ratioP2;P2;SDS_P1;SDS_P2;PMS_P1;PMS_P2;Temp;Humidity;BMP_temperature;BMP_pressure;BME280_temperature;BME280_humidity;BME280_pressure;Samples;Min_cycle;Max_cycle;Signal;HPM_P1;HPM_P2
2021/01/16 00:01:09;;;;;;;12.40;6.63;;;;;;;-144.78;100.00;59851.00;5035433;28;20206;-69
2021/01/16 00:03:35;;;;;;;6.65;5.47;;;;;;;-144.78;100.00;59851.00;5035950;28;20228;-68
2021/01/16 00:06:03;;;;;;;9.05;5.28;;;;;;;-144.78;100.00;59851.00;5035792;28;20221;-70
2021/01/16 00:08:30;;;;;;;10.68;6.32;;;;;;;-144.78;100.00;59851.00;5035876;28;20253;-70
2021/01/16 00:10:58;;;;;;;6.80;5.68;;;;;;;-144.78;100.00;59851.00;5035746;28;20313;-71
2021/01/16 00:13:26;;;;;;;8.18;5.35;;;;;;;-144.78;100.00;59851.00;5035588;28;20229;-70
2021/01/16 00:15:52;;;;;;;8.27;3.95;;;;;;;-144.78;100.00;59851.00;5035733;28;20660;-71
2021/01/16 00:18:20;;;;;;;9.95;6.45;;;;;;;-144.78;100.00;59851.00;5035524;28;20202;-67
2021/01/16 00:20:48;;;;;;;7.07;4.70;;;;;;;-144.78;100.00;59851.00;5035728;28;20700;-69
2021/01/16 00:23:15;;;;;;;9.73;5.53;;;;;;;-144.78;100.00;59851.00;5035471;28;20622;-70
2021/01/16 00:25:42;;;;;;;7.07;4.80;;;;;;;-144.78;100.00;59851.00;5035988;28;20683;-70
2021/01/16 00:28:16;;;;;;;13.45;6.05;;;;;;;-144.78;100.00;59851.00;5035206;28;20686;-69
2021/01/16 00:30:42;;;;;;;6.35;4.80;;;;;;;-144.78;100.00;59851.00;5015994;28;20249;-69
2021/01/16 00:33:15;;;;;;;7.30;6.35;;;;;;;-144.78;100.00;59851.00;5015845;28;20269;-69
2021/01/16 00:35:42;;;;;;;6.70;5.35;;;;;;;-144.78;100.00;59851.00;5015618;28;20280;-68
2021/01/16 00:38:09;;;;;;;9.23;6.13;;;;;;;-144.78;100.00;59851.00;5015575;28;20195;-70
2021/01/16 00:40:37;;;;;;;11.35;6.10;;;;;;;-144.78;100.00;59851.00;5015342;28;20253;-70
2021/01/16 00:43:06;;;;;;;6.75;6.07;;;;;;;-144.78;100.00;59851.00;5015744;28;20365;-70
2021/01/16 00:45:33;;;;;;;9.02;5.38;;;;;;;-144.78;100.00;59851.00;5015244;28;20331;-70
2021/01/16 00:48:07;;;;;;;6.30;5.68;;;;;;;-144.78;100.00;59851.00;5015654;28;20268;-69
2021/01/16 00:50:33;;;;;;;9.82;7.90;;;;;;;-144.78;100.00;59851.00;5015286;28;20252;-71
2021/01/16 00:53:00;;;;;;;5.13;4.28;;;;;;;-144.78;100.00;59851.00;5014567;28;20289;-70
2021/01/16 00:55:27;;;;;;;8.10;4.90;;;;;;;-144.78;100.00;59851.00;5015453;28;20199;-69
2021/01/16 00:57:55;;;;;;;10.52;5.97;;;;;;;-144.78;100.00;59851.00;5026509;28;20221;-70
2021/01/16 01:00:24;;;;;;;7.50;5.85;;;;;;;-144.78;100.00;59851.00;5034501;28;20330;-69
2021/01/16 01:02:50;;;;;;;15.60;6.40;;;;;;;-144.78;100.00;59851.00;5034887;28;20225;-70
2021/01/16 01:05:19;;;;;;;7.47;4.68;;;;;;;-144.78;100.00;59851.00;5034910;28;20206;-71
2021/01/16 01:07:48;;;;;;;3.80;3.47;;;;;;;-144.78;100.00;59851.00;5035113;28;20348;-68
2021/01/16 01:10:16;;;;;;;8.70;6.10;;;;;;;-144.78;100.00;59851.00;5034255;28;20218;-70
2021/01/16 01:12:42;;;;;;;7.70;6.65;;;;;;;-144.78;100.00;59851.00;5034850;28;20644;-69
2021/01/16 01:15:10;;;;;;;11.68;7.43;;;;;;;-144.78;100.00;59851.00;5034328;28;20201;-70
2021/01/16 01:17:36;;;;;;;7.20;5.22;;;;;;;-144.78;100.00;59851.00;5034581;28;20289;-70
2021/01/16 01:20:04;;;;;;;6.75;5.30;;;;;;;-144.78;100.00;59851.00;5034788;28;20226;-70
2021/01/16 01:22:35;;;;;;;10.90;5.70;;;;;;;-144.78;100.00;59851.00;5034384;28;20213;-70
2021/01/16 01:25:01;;;;;;;8.27;5.13;;;;;;;-144.78;100.00;59851.00;5034402;28;20297;-70
2021/01/16 01:27:27;;;;;;;9.55;5.18;;;;;;;-144.78;100.00;59851.00;5033928;28;20245;-68
2021/01/16 01:29:54;;;;;;;9.93;6.55;;;;;;;-144.78;100.00;59851.00;5034293;28;20205;-71
2021/01/16 01:32:21;;;;;;;5.55;4.38;;;;;;;-144.78;100.00;59851.00;5034084;28;20237;-70
2021/01/16 01:34:47;;;;;;;8.65;4.80;;;;;;;-144.78;100.00;59851.00;5033910;28;20286;-70
2021/01/16 01:37:13;;;;;;;10.93;5.93;;;;;;;-144.78;100.00;59851.00;5033924;28;20206;-70
2021/01/16 01:39:39;;;;;;;9.85;5.60;;;;;;;-144.78;100.00;59851.00;5034035;28;20281;-70
2021/01/16 01:42:06;;;;;;;13.02;5.13;;;;;;;-144.78;100.00;59851.00;5033830;28;20289;-70
2021/01/16 01:44:32;;;;;;;11.88;8.68;;;;;;;-144.78;100.00;59851.00;5034184;28;20591;-69
2021/01/16 01:46:58;;;;;;;10.32;5.38;;;;;;;-144.78;100.00;59851.00;5034226;28;20210;-70
2021/01/16 01:49:25;;;;;;;11.00;6.78;;;;;;;-144.78;100.00;59851.00;5033564;28;20252;-70
2021/01/16 01:51:53;;;;;;;5.95;5.45;;;;;;;-144.78;100.00;59851.00;5033397;28;20222;-69
2021/01/16 01:54:19;;;;;;;8.10;5.80;;;;;;;-144.78;100.00;59851.00;5034024;28;20636;-67
2021/01/16 01:56:48;;;;;;;5.72;4.75;;;;;;;-144.78;100.00;59851.00;5033377;28;20216;-68
2021/01/16 01:59:16;;;;;;;7.30;5.50;;;;;;;-144.78;100.00;59851.00;5033421;28;20290;-69
2021/01/16 02:01:50;;;;;;;6.28;5.75;;;;;;;-144.78;100.00;59851.00;5033580;28;20213;-69
2021/01/16 02:04:18;;;;;;;11.25;5.60;;;;;;;-144.78;100.00;59851.00;5033090;28;20296;-68
2021/01/16 02:06:45;;;;;;;5.28;4.78;;;;;;;-144.78;100.00;59851.00;5033341;28;20190;-69
2021/01/16 02:09:12;;;;;;;8.13;5.30;;;;;;;-144.78;100.00;59851.00;5033600;28;20296;-69
2021/01/16 02:11:38;;;;;;;5.00;4.63;;;;;;;-144.78;100.00;59851.00;5033188;28;20229;-71
2021/01/16 02:14:04;;;;;;;7.65;6.10;;;;;;;-144.78;100.00;59851.00;5033384;28;20209;-70
2021/01/16 02:16:39;;;;;;;12.73;5.28;;;;;;;-144.78;100.00;59851.00;5033298;28;20217;-68
2021/01/16 02:19:07;;;;;;;15.02;7.85;;;;;;;-144.78;100.00;59851.00;5033051;28;20194;-69
2021/01/16 02:21:37;;;;;;;11.82;8.02;;;;;;;-144.78;100.00;59851.00;5013415;28;20195;-69
2021/01/16 02:24:12;;;;;;;9.45;5.97;;;;;;;-144.78;100.00;59851.00;5013878;28;20261;-68
2021/01/16 02:26:55;;;;;;;8.48;5.80;;;;;;;-144.78;100.00;59851.00;5013462;28;20644;-69
2021/01/16 02:29:23;;;;;;;8.13;5.95;;;;;;;-144.78;100.00;59851.00;5013368;28;20304;-70
2021/01/16 02:31:56;;;;;;;11.20;7.25;;;;;;;-144.78;100.00;59851.00;5013524;28;20567;-69
2021/01/16 02:34:27;;;;;;;6.97;6.40;;;;;;;-144.78;100.00;59851.00;5013295;28;20197;-70
2021/01/16 02:37:23;;;;;;;9.07;6.53;;;;;;;-144.78;100.00;59851.00;5013563;28;20289;-70
2021/01/16 02:40:02;;;;;;;6.93;5.00;;;;;;;-144.78;100.00;59851.00;5013606;28;20237;-69
2021/01/16 02:42:38;;;;;;;6.03;5.38;;;;;;;-144.78;100.00;59851.00;5013764;28;20190;-69
2021/01/16 02:45:11;;;;;;;5.47;4.93;;;;;;;-144.78;100.00;59851.00;5013238;28;20289;-70
2021/01/16 02:47:48;;;;;;;7.47;6.40;;;;;;;-144.78;100.00;59851.00;5012805;28;20274;-69
2021/01/16 02:50:20;;;;;;;13.55;8.55;;;;;;;-144.78;100.00;59851.00;5012837;28;20294;-68
2021/01/16 02:52:47;;;;;;;10.63;6.68;;;;;;;-144.78;100.00;59851.00;5013254;28;20191;-68
2021/01/16 02:55:15;;;;;;;8.65;6.15;;;;;;;-144.78;100.00;59851.00;5013179;28;20676;-70
2021/01/16 02:57:41;;;;;;;14.77;8.52;;;;;;;-144.78;100.00;59851.00;5022735;28;20201;-70
2021/01/16 03:00:11;;;;;;;6.93;4.25;;;;;;;-144.78;100.00;59851.00;5032809;28;20591;-70
2021/01/16 03:02:37;;;;;;;10.98;5.72;;;;;;;-144.78;100.00;59851.00;5032920;28;20629;-70
2021/01/16 03:05:05;;;;;;;16.05;7.10;;;;;;;-144.78;100.00;59851.00;5033022;28;20695;-70
2021/01/16 03:07:33;;;;;;;7.53;5.38;;;;;;;-144.78;100.00;59851.00;5032105;28;20273;-69
2021/01/16 03:10:02;;;;;;;8.25;7.28;;;;;;;-144.78;100.00;59851.00;5032285;28;20300;-70
2021/01/16 03:12:29;;;;;;;8.95;5.70;;;;;;;-144.78;100.00;59851.00;5032812;28;20651;-68
2021/01/16 03:14:58;;;;;;;13.93;6.60;;;;;;;-144.78;100.00;59851.00;5032069;28;20279;-71
2021/01/16 03:17:26;;;;;;;11.65;7.30;;;;;;;-144.78;100.00;59851.00;5032667;28;20237;-69
2021/01/16 03:19:53;;;;;;;13.30;7.78;;;;;;;-144.78;100.00;59851.00;5032762;28;20224;-68
2021/01/16 03:22:20;;;;;;;22.13;6.45;;;;;;;-144.78;100.00;59851.00;5032190;28;20206;-69
2021/01/16 03:24:49;;;;;;;15.15;6.47;;;;;;;-144.78;100.00;59851.00;5031991;28;20292;-71
2021/01/16 03:27:15;;;;;;;5.90;4.43;;;;;;;-144.78;100.00;59851.00;5031302;28;20324;-70
2021/01/16 03:29:45;;;;;;;8.77;7.32;;;;;;;-144.78;100.00;59851.00;5032014;28;20237;-70
2021/01/16 03:32:11;;;;;;;6.00;5.22;;;;;;;-144.78;100.00;59851.00;5032070;28;20222;-71
2021/01/16 03:34:42;;;;;;;7.28;6.63;;;;;;;-144.78;100.00;59851.00;5032368;28;20205;-70
2021/01/16 03:37:09;;;;;;;6.10;5.60;;;;;;;-144.78;100.00;59851.00;5032361;28;20328;-71
2021/01/16 03:39:36;;;;;;;6.70;4.97;;;;;;;-144.78;100.00;59851.00;5032164;28;20277;-69
2021/01/16 03:42:03;;;;;;;7.15;4.95;;;;;;;-144.78;100.00;59851.00;5032182;28;20316;-69
2021/01/16 03:44:29;;;;;;;6.03;5.43;;;;;;;-144.78;100.00;59851.00;5031878;28;20281;-70
2021/01/16 03:46:56;;;;;;;8.35;5.30;;;;;;;-144.78;100.00;59851.00;5032131;28;20797;-69
2021/01/16 03:49:22;;;;;;;15.95;6.43;;;;;;;-144.78;100.00;59851.00;5031998;28;20225;-69
2021/01/16 03:51:49;;;;;;;10.38;6.30;;;;;;;-144.78;100.00;59851.00;5031993;28;20321;-69
2021/01/16 03:54:15;;;;;;;9.45;5.18;;;;;;;-144.78;100.00;59851.00;5032543;28;20212;-70
2021/01/16 03:56:42;;;;;;;12.25;6.55;;;;;;;-144.78;100.00;59851.00;5032094;28;20206;-69
2021/01/16 03:59:08;;;;;;;14.95;6.78;;;;;;;-144.78;100.00;59851.00;5032526;28;20929;-74
2021/01/16 04:01:35;;;;;;;12.68;8.15;;;;;;;-144.78;100.00;59851.00;5032257;28;20802;-68
2021/01/16 04:04:02;;;;;;;20.73;7.75;;;;;;;-144.78;100.00;59851.00;5032016;28;20226;-70
2021/01/16 04:06:28;;;;;;;6.72;5.13;;;;;;;-144.78;100.00;59851.00;5032056;28;20220;-70
2021/01/16 04:08:56;;;;;;;9.00;6.03;;;;;;;-144.78;100.00;59851.00;5031765;28;20190;-72
2021/01/16 04:11:22;;;;;;;8.25;6.63;;;;;;;-144.78;100.00;59851.00;5032196;28;20381;-70
2021/01/16 04:13:48;;;;;;;4.63;4.20;;;;;;;-144.78;100.00;59851.00;5031919;28;20281;-69
2021/01/16 04:16:15;;;;;;;7.55;6.75;;;;;;;-144.78;100.00;59851.00;5032095;28;20249;-70
2021/01/16 04:18:41;;;;;;;10.32;8.50;;;;;;;-144.78;100.00;59851.00;5032058;28;20201;-70
2021/01/16 04:21:07;;;;;;;9.80;5.22;;;;;;;-144.78;100.00;59851.00;5032140;28;20190;-70
2021/01/16 04:23:33;;;;;;;8.13;6.88;;;;;;;-144.78;100.00;59851.00;5032074;28;20285;-69
2021/01/16 04:26:01;;;;;;;16.48;6.20;;;;;;;-144.78;100.00;59851.00;5031695;28;20574;-71
2021/01/16 04:28:27;;;;;;;7.38;5.57;;;;;;;-144.78;100.00;59851.00;5034887;28;20315;-70
2021/01/16 04:30:53;;;;;;;16.15;6.90;;;;;;;-144.78;100.00;59851.00;5035748;28;20658;-70
2021/01/16 04:33:19;;;;;;;14.50;5.82;;;;;;;-144.78;100.00;59851.00;5035558;28;20208;-70
2021/01/16 04:35:45;;;;;;;17.00;8.60;;;;;;;-144.78;100.00;59851.00;5035601;28;20182;-70
2021/01/16 04:38:12;;;;;;;9.85;5.45;;;;;;;-144.78;100.00;59851.00;5035517;28;20277;-68
2021/01/16 04:40:39;;;;;;;17.33;6.35;;;;;;;-144.78;100.00;59851.00;5035117;28;20205;-69
2021/01/16 04:43:06;;;;;;;12.68;7.03;;;;;;;-144.78;100.00;59851.00;5035689;28;20604;-71
2021/01/16 04:45:33;;;;;;;6.80;5.25;;;;;;;-144.78;100.00;59851.00;5035249;28;20251;-69
2021/01/16 04:48:03;;;;;;;13.65;7.85;;;;;;;-144.78;100.00;59851.00;5035271;28;20206;-70
2021/01/16 04:50:31;;;;;;;5.88;3.92;;;;;;;-144.78;100.00;59851.00;5035293;28;20214;-70
2021/01/16 04:53:05;;;;;;;11.70;6.45;;;;;;;-144.78;100.00;59851.00;5035120;28;20265;-69
2021/01/16 04:55:32;;;;;;;7.70;6.30;;;;;;;-144.78;100.00;59851.00;5035411;28;20229;-70
2021/01/16 04:58:07;;;;;;;16.45;5.88;;;;;;;-144.78;100.00;59851.00;5034786;28;20194;-70
2021/01/16 05:00:37;;;;;;;3.58;3.15;;;;;;;-144.78;100.00;59851.00;5034958;28;20216;-69
2021/01/16 05:03:06;;;;;;;6.10;4.15;;;;;;;-144.78;100.00;59851.00;5035018;28;20268;-69
2021/01/16 05:05:34;;;;;;;5.63;4.93;;;;;;;-144.78;100.00;59851.00;5034545;28;20233;-70
2021/01/16 05:08:01;;;;;;;8.48;4.53;;;;;;;-144.78;100.00;59851.00;5034560;28;20274;-70
2021/01/16 05:10:35;;;;;;;23.58;8.73;;;;;;;-144.78;100.00;59851.00;5034551;28;20256;-70
2021/01/16 05:13:30;;;;;;;10.88;5.90;;;;;;;-144.78;100.00;59851.00;5034862;28;20618;-69
2021/01/16 05:15:59;;;;;;;9.43;5.53;;;;;;;-144.78;100.00;59851.00;5034743;28;20229;-70
2021/01/16 05:18:26;;;;;;;5.93;5.07;;;;;;;-144.78;100.00;59851.00;5034567;28;20292;-69
2021/01/16 05:20:53;;;;;;;14.35;7.05;;;;;;;-144.78;100.00;59851.00;5034844;28;20217;-69
2021/01/16 05:23:19;;;;;;;7.93;7.22;;;;;;;-144.78;100.00;59851.00;5034673;28;20233;-70
2021/01/16 05:25:47;;;;;;;9.25;5.05;;;;;;;-144.78;100.00;59851.00;5034586;28;20289;-69
2021/01/16 05:28:16;;;;;;;7.53;5.93;;;;;;;-144.78;100.00;59851.00;5033692;28;20236;-69
2021/01/16 05:30:51;;;;;;;5.75;4.63;;;;;;;-144.78;100.00;59851.00;5034210;28;20210;-69
2021/01/16 05:33:19;;;;;;;14.35;6.80;;;;;;;-144.78;100.00;59851.00;5034418;28;20368;-70
2021/01/16 05:35:46;;;;;;;8.00;5.18;;;;;;;-144.78;100.00;59851.00;5034539;28;20269;-70
2021/01/16 05:38:14;;;;;;;6.45;5.55;;;;;;;-144.78;100.00;59851.00;5034047;28;20292;-70
2021/01/16 05:40:41;;;;;;;11.98;6.38;;;;;;;-144.78;100.00;59851.00;5034252;28;20547;-68
2021/01/16 05:43:08;;;;;;;8.52;5.25;;;;;;;-144.78;100.00;59851.00;5034299;28;20192;-70
2021/01/16 05:45:36;;;;;;;7.55;5.50;;;;;;;-144.78;100.00;59851.00;5033975;28;20293;-70
2021/01/16 05:48:04;;;;;;;12.75;5.30;;;;;;;-144.78;100.00;59851.00;5033964;28;20204;-69
2021/01/16 05:50:31;;;;;;;12.13;8.02;;;;;;;-144.78;100.00;59851.00;5034138;28;20683;-70
2021/01/16 05:52:57;;;;;;;11.55;4.22;;;;;;;-144.78;100.00;59851.00;5034441;28;20190;-70
2021/01/16 05:55:24;;;;;;;5.03;4.53;;;;;;;-144.78;100.00;59851.00;5033925;28;20271;-68
2021/01/16 05:58:03;;;;;;;10.93;6.80;;;;;;;-144.78;100.00;59851.00;5034032;28;20297;-70
2021/01/16 06:00:37;;;;;;;11.63;5.72;;;;;;;-144.78;100.00;59851.00;5033504;28;20206;-70
2021/01/16 06:03:06;;;;;;;33.90;6.50;;;;;;;-144.78;100.00;59851.00;5033578;28;20292;-69
2021/01/16 06:05:34;;;;;;;11.20;4.43;;;;;;;-144.78;100.00;59851.00;5033815;28;20340;-69
2021/01/16 06:08:00;;;;;;;11.23;5.00;;;;;;;-144.78;100.00;59851.00;5033859;28;20281;-70
2021/01/16 06:10:28;;;;;;;7.93;4.70;;;;;;;-144.78;100.00;59851.00;5033599;28;20687;-70
2021/01/16 06:13:01;;;;;;;8.45;6.10;;;;;;;-144.78;100.00;59851.00;5033780;28;20206;-70
2021/01/16 06:15:35;;;;;;;9.05;4.75;;;;;;;-144.78;100.00;59851.00;5033702;28;20205;-70
2021/01/16 06:18:02;;;;;;;7.70;5.97;;;;;;;-144.78;100.00;59851.00;5032921;28;20276;-69
2021/01/16 06:20:32;;;;;;;12.32;5.15;;;;;;;-144.78;100.00;59851.00;5033482;28;20593;-71
2021/01/16 06:23:10;;;;;;;4.40;3.35;;;;;;;-144.78;100.00;59851.00;5033434;28;20666;-69
2021/01/16 06:25:37;;;;;;;5.03;4.63;;;;;;;-144.78;100.00;59851.00;5033551;28;20217;-70
2021/01/16 06:28:04;;;;;;;8.70;4.90;;;;;;;-144.78;100.00;59851.00;5033166;28;20755;-70
2021/01/16 06:30:33;;;;;;;10.05;4.53;;;;;;;-144.78;100.00;59851.00;5032942;28;20216;-70
2021/01/16 06:33:05;;;;;;;6.45;5.60;;;;;;;-144.78;100.00;59851.00;5033639;28;20191;-70
2021/01/16 06:35:32;;;;;;;3.67;3.47;;;;;;;-144.78;100.00;59851.00;5033590;28;20281;-71
2021/01/16 06:37:58;;;;;;;15.30;6.20;;;;;;;-144.78;100.00;59851.00;5032981;28;20584;-70
2021/01/16 06:40:29;;;;;;;11.18;6.57;;;;;;;-144.78;100.00;59851.00;5033112;28;20190;-70
2021/01/16 06:42:57;;;;;;;7.72;6.28;;;;;;;-144.78;100.00;59851.00;5033050;28;20252;-69
2021/01/16 06:45:25;;;;;;;12.88;5.95;;;;;;;-144.78;100.00;59851.00;5033201;28;20361;-69
2021/01/16 06:47:56;;;;;;;13.35;7.78;;;;;;;-144.78;100.00;59851.00;5032550;28;20645;-70
2021/01/16 06:50:25;;;;;;;9.10;7.47;;;;;;;-144.78;100.00;59851.00;5032132;28;20190;-70
2021/01/16 06:52:53;;;;;;;6.32;5.00;;;;;;;-144.78;100.00;59851.00;5032709;28;20537;-69
2021/01/16 06:55:20;;;;;;;7.65;5.75;;;;;;;-144.78;100.00;59851.00;5032931;28;20205;-70
2021/01/16 06:57:47;;;;;;;6.70;6.05;;;;;;;-144.78;100.00;59851.00;5032643;28;20249;-69
2021/01/16 07:00:16;;;;;;;18.10;8.60;;;;;;;-144.78;100.00;59851.00;5031669;28;20288;-69
2021/01/16 07:02:47;;;;;;;12.60;9.88;;;;;;;-144.78;100.00;59851.00;5032577;28;20277;-70
2021/01/16 07:05:20;;;;;;;11.98;5.68;;;;;;;-144.78;100.00;59851.00;5032634;28;20201;-69
2021/01/16 07:07:48;;;;;;;6.32;5.00;;;;;;;-144.78;100.00;59851.00;5032840;28;20683;-68
2021/01/16 07:10:17;;;;;;;10.65;7.93;;;;;;;-144.78;100.00;59851.00;5032468;28;20317;-70
2021/01/16 07:12:46;;;;;;;6.18;5.43;;;;;;;-144.78;100.00;59851.00;5032621;28;20648;-69
2021/01/16 07:15:13;;;;;;;9.18;6.72;;;;;;;-144.78;100.00;59851.00;5032070;28;20224;-70
2021/01/16 07:17:39;;;;;;;8.50;4.88;;;;;;;-144.78;100.00;59851.00;5032142;28;20237;-70
2021/01/16 07:20:07;;;;;;;13.90;6.63;;;;;;;-144.78;100.00;59851.00;5032292;28;20206;-70
2021/01/16 07:22:37;;;;;;;7.57;5.22;;;;;;;-144.78;100.00;59851.00;5032250;28;20194;-70
2021/01/16 07:25:06;;;;;;;6.78;5.18;;;;;;;-144.78;100.00;59851.00;5033006;28;20501;-70
2021/01/16 07:27:34;;;;;;;8.98;7.25;;;;;;;-144.78;100.00;59851.00;5031879;28;20297;-71
2021/01/16 07:30:02;;;;;;;19.77;8.77;;;;;;;-144.78;100.00;59851.00;5032310;28;20674;-69
2021/01/16 07:32:37;;;;;;;9.68;7.65;;;;;;;-144.78;100.00;59851.00;5032055;28;20675;-70
2021/01/16 07:35:06;;;;;;;12.95;7.85;;;;;;;-144.78;100.00;59851.00;5031977;28;20189;-70
2021/01/16 07:37:33;;;;;;;9.50;6.65;;;;;;;-144.78;100.00;59851.00;5032348;28;20206;-70
2021/01/16 07:40:00;;;;;;;10.13;5.40;;;;;;;-144.78;100.00;59851.00;5032090;28;20260;-70
2021/01/16 07:42:27;;;;;;;13.27;8.20;;;;;;;-144.78;100.00;59851.00;5032509;28;20313;-70
2021/01/16 07:45:08;;;;;;;13.40;5.97;;;;;;;-144.78;100.00;59851.00;5032684;28;20605;-69
2021/01/16 07:47:40;;;;;;;13.02;6.18;;;;;;;-144.78;100.00;59851.00;5032485;28;20331;-68
2021/01/16 07:50:15;;;;;;;10.73;6.53;;;;;;;-144.78;100.00;59851.00;5032023;28;20194;-69
2021/01/16 07:52:52;;;;;;;13.57;8.38;;;;;;;-144.78;100.00;59851.00;5031816;28;20186;-69
2021/01/16 07:55:19;;;;;;;8.82;5.32;;;;;;;-144.78;100.00;59851.00;5031674;28;20196;-71
2021/01/16 07:57:50;;;;;;;12.50;5.70;;;;;;;-144.78;100.00;59851.00;5031793;28;20205;-70
2021/01/16 08:00:19;;;;;;;8.77;5.72;;;;;;;-144.78;100.00;59851.00;5031811;28;20198;-70
2021/01/16 08:03:18;;;;;;;7.45;6.03;;;;;;;-144.78;100.00;59851.00;5034295;28;20633;-70
2021/01/16 08:05:55;;;;;;;10.88;8.77;;;;;;;-144.78;100.00;59851.00;5020793;28;20191;-70
2021/01/16 08:09:03;;;;;;;9.00;7.47;;;;;;;-144.78;100.00;59851.00;5035780;28;20229;-70
2021/01/16 08:11:30;;;;;;;6.55;5.95;;;;;;;-144.78;100.00;59851.00;5016003;28;20853;-69
2021/01/16 08:14:01;;;;;;;12.07;7.57;;;;;;;-144.78;100.00;59851.00;5027115;28;20668;-71
2021/01/16 08:16:28;;;;;;;11.48;8.02;;;;;;;-144.78;100.00;59851.00;5035777;28;20583;-71
2021/01/16 08:19:14;;;;;;;9.48;8.48;;;;;;;-144.78;100.00;59851.00;5035364;28;20198;-69
2021/01/16 08:21:52;;;;;;;14.90;8.20;;;;;;;-144.78;100.00;59851.00;5015760;28;20187;-69
2021/01/16 08:24:20;;;;;;;13.50;7.45;;;;;;;-144.78;100.00;59851.00;5015858;28;20213;-70
2021/01/16 08:26:55;;;;;;;6.50;4.55;;;;;;;-144.78;100.00;59851.00;5024820;28;20276;-70
2021/01/16 08:29:23;;;;;;;10.18;6.85;;;;;;;-144.78;100.00;59851.00;5022656;28;20222;-69
2021/01/16 08:32:03;;;;;;;7.88;5.93;;;;;;;-144.78;100.00;59851.00;5015821;28;20303;-70
2021/01/16 08:34:49;;;;;;;14.50;8.73;;;;;;;-144.78;100.00;59851.00;5015860;28;20198;-70
2021/01/16 08:37:27;;;;;;;14.15;7.47;;;;;;;-144.78;100.00;59851.00;5017196;28;20209;-69
2021/01/16 08:39:54;;;;;;;11.07;6.63;;;;;;;-144.78;100.00;59851.00;5034618;28;20197;-70
2021/01/16 08:42:25;;;;;;;10.52;6.22;;;;;;;-144.78;100.00;59851.00;5035628;28;20213;-71
2021/01/16 08:44:52;;;;;;;13.07;9.90;;;;;;;-144.78;100.00;59851.00;5034803;28;20203;-69
2021/01/16 08:47:20;;;;;;;13.95;7.25;;;;;;;-144.78;100.00;59851.00;5034808;28;20656;-70
2021/01/16 08:49:46;;;;;;;11.57;6.95;;;;;;;-144.78;100.00;59851.00;5034887;28;20277;-70
2021/01/16 08:52:13;;;;;;;14.32;8.35;;;;;;;-144.78;100.00;59851.00;5034203;28;20220;-70
2021/01/16 08:54:58;;;;;;;9.23;8.32;;;;;;;-144.78;100.00;59851.00;5015106;28;20237;-68
2021/01/16 08:57:29;;;;;;;16.27;9.13;;;;;;;-144.78;100.00;59851.00;5022503;28;20637;-71
2021/01/16 08:59:55;;;;;;;9.32;6.30;;;;;;;-144.78;100.00;59851.00;5033589;28;20552;-70
2021/01/16 09:02:23;;;;;;;9.65;7.97;;;;;;;-144.78;100.00;59851.00;5033786;28;20212;-70
2021/01/16 09:04:49;;;;;;;28.55;6.80;;;;;;;-144.78;100.00;59851.00;5034560;28;20237;-68
2021/01/16 09:07:17;;;;;;;13.80;6.05;;;;;;;-144.78;100.00;59851.00;5034794;28;20225;-70
2021/01/16 09:09:52;;;;;;;6.22;3.65;;;;;;;-144.78;100.00;59851.00;5034428;28;20560;-70
2021/01/16 09:12:23;;;;;;;8.70;5.88;;;;;;;-144.78;100.00;59851.00;5034392;28;20317;-70
2021/01/16 09:14:49;;;;;;;8.38;7.57;;;;;;;-144.78;100.00;59851.00;5033406;28;20295;-69
2021/01/16 09:17:26;;;;;;;13.90;5.82;;;;;;;-144.78;100.00;59851.00;5025495;28;20286;-70
2021/01/16 09:19:57;;;;;;;15.90;10.85;;;;;;;-144.78;100.00;59851.00;5015778;28;20238;-69
2021/01/16 09:22:25;;;;;;;15.57;9.05;;;;;;;-144.78;100.00;59851.00;5014552;28;20210;-68
2021/01/16 09:24:52;;;;;;;13.07;8.50;;;;;;;-144.78;100.00;59851.00;5014699;28;20306;-70
2021/01/16 09:27:28;;;;;;;13.45;6.93;;;;;;;-144.78;100.00;59851.00;5028279;28;20194;-68
2021/01/16 09:29:58;;;;;;;11.63;5.85;;;;;;;-144.78;100.00;59851.00;5014105;28;20281;-70
2021/01/16 09:32:33;;;;;;;8.20;6.88;;;;;;;-144.78;100.00;59851.00;5013972;28;20250;-70
2021/01/16 09:35:00;;;;;;;20.35;9.40;;;;;;;-144.78;100.00;59851.00;5000649;28;20198;-69
2021/01/16 09:37:29;;;;;;;14.13;6.45;;;;;;;-144.78;100.00;59851.00;5012880;28;20196;-70
2021/01/16 09:40:04;;;;;;;16.58;8.52;;;;;;;-144.78;100.00;59851.00;5014341;28;20214;-70
2021/01/16 09:42:30;;;;;;;17.98;8.38;;;;;;;-144.78;100.00;59851.00;5013966;28;20583;-70
2021/01/16 09:44:57;;;;;;;15.48;8.10;;;;;;;-144.78;100.00;59851.00;5014807;28;20681;-68
2021/01/16 09:47:44;;;;;;;9.50;5.95;;;;;;;-144.78;100.00;59851.00;5014190;28;20240;-69
2021/01/16 09:50:12;;;;;;;15.90;7.20;;;;;;;-144.78;100.00;59851.00;5014526;28;20278;-70
2021/01/16 09:52:49;;;;;;;12.75;5.47;;;;;;;-144.78;100.00;59851.00;5014018;28;20405;-71
2021/01/16 09:55:17;;;;;;;20.80;9.23;;;;;;;-144.78;100.00;59851.00;5013897;28;20194;-69
2021/01/16 09:57:43;;;;;;;14.63;8.68;;;;;;;-144.78;100.00;59851.00;5014001;28;20551;-71
2021/01/16 10:00:11;;;;;;;13.23;8.98;;;;;;;-144.78;100.00;59851.00;5003390;28;20731;-70
2021/01/16 10:02:39;;;;;;;13.02;8.98;;;;;;;-144.78;100.00;59851.00;4994351;28;20281;-70
2021/01/16 10:05:09;;;;;;;16.63;7.88;;;;;;;-144.78;100.00;59851.00;4994032;28;20244;-69
2021/01/16 10:07:42;;;;;;;17.48;8.35;;;;;;;-144.78;100.00;59851.00;4998590;28;20249;-70
2021/01/16 10:10:18;;;;;;;9.43;6.22;;;;;;;-144.78;100.00;59851.00;4994591;28;20196;-71
2021/01/16 10:12:46;;;;;;;12.55;7.82;;;;;;;-144.78;100.00;59851.00;4994604;28;20697;-70
2021/01/16 10:15:34;;;;;;;10.55;6.93;;;;;;;-144.78;100.00;59851.00;4994372;28;20211;-71
2021/01/16 10:18:06;;;;;;;11.93;9.07;;;;;;;-144.78;100.00;59851.00;4953474;28;20197;-67
2021/01/16 10:20:35;;;;;;;13.68;7.10;;;;;;;-144.78;100.00;59851.00;4953139;29;20329;-71
2021/01/16 10:23:06;;;;;;;14.30;7.28;;;;;;;-144.78;100.00;59851.00;4952863;29;20212;-70
2021/01/16 10:25:41;;;;;;;13.70;7.10;;;;;;;-144.78;100.00;59851.00;4958841;28;20253;-70
2021/01/16 10:28:11;;;;;;;13.95;7.72;;;;;;;-144.78;100.00;59851.00;4974903;28;20228;-70
2021/01/16 10:30:57;;;;;;;10.90;6.85;;;;;;;-144.78;100.00;59851.00;4972280;28;20200;-69
2021/01/16 10:33:23;;;;;;;16.10;8.45;;;;;;;-144.78;100.00;59851.00;4985666;28;20595;-69
2021/01/16 10:36:05;;;;;;;10.98;6.10;;;;;;;-144.78;100.00;59851.00;4991634;28;20203;-70
2021/01/16 10:38:50;;;;;;;12.85;6.70;;;;;;;-144.78;100.00;59851.00;4978491;28;20659;-70
2021/01/16 10:41:19;;;;;;;12.82;8.48;;;;;;;-144.78;100.00;59851.00;4991183;28;20195;-70
2021/01/16 10:43:46;;;;;;;7.72;5.68;;;;;;;-144.78;100.00;59851.00;4991266;28;20207;-71
2021/01/16 10:46:21;;;;;;;12.88;7.68;;;;;;;-144.78;100.00;59851.00;4991029;28;20446;-70
2021/01/16 10:48:48;;;;;;;7.75;6.13;;;;;;;-144.78;100.00;59851.00;5008465;28;20202;-70
2021/01/16 10:51:24;;;;;;;14.25;6.90;;;;;;;-144.78;100.00;59851.00;5033106;28;20232;-70
2021/01/16 10:53:57;;;;;;;10.02;6.13;;;;;;;-144.78;100.00;59851.00;5032765;28;20190;-70
2021/01/16 10:56:27;;;;;;;7.15;6.43;;;;;;;-144.78;100.00;59851.00;5032812;28;20219;-69
2021/01/16 10:59:09;;;;;;;18.13;8.93;;;;;;;-144.78;100.00;59851.00;5031930;28;20211;-70
2021/01/16 11:01:50;;;;;;;10.30;6.85;;;;;;;-144.78;100.00;59851.00;5033165;28;20683;-70
2021/01/16 11:04:19;;;;;;;9.98;6.80;;;;;;;-144.78;100.00;59851.00;5027800;28;20202;-70
2021/01/16 11:06:55;;;;;;;17.27;8.75;;;;;;;-144.78;100.00;59851.00;5013492;28;20218;-69
2021/01/16 11:10:02;;;;;;;11.38;7.85;;;;;;;-144.78;100.00;59851.00;5023178;28;20200;-69
2021/01/16 11:12:29;;;;;;;19.00;7.22;;;;;;;-144.78;100.00;59851.00;5015415;28;20218;-70
2021/01/16 11:14:55;;;;;;;19.98;7.60;;;;;;;-144.78;100.00;59851.00;5032751;28;20226;-68
2021/01/16 11:17:47;;;;;;;15.13;11.60;;;;;;;-144.78;100.00;59851.00;5032027;28;20234;-69